Time;durP1;ratioP1;P1;durP2;ratioP2;P2;SDS_P1;SDS_P2;PMS_P1;PMS_P2;Temp;Humidity;BMP_temperature;BMP_pressure;BME280_temperature;BME280_humidity;BME280_pressure;Samples;Min_cycle;Max_cycle;Signal;HPM_P1;HPM_P2
2023/09/14 00:00:24;;;;;;;3.53;3.05;;;18.30;99.90;;;;;;5101650;28;20042;-69
2023/09/14 00:02:55;;;;;;;3.20;2.47;;;18.30;99.90;;;;;;5145006;28;20034;-68
2023/09/14 00:05:26;;;;;;;3.38;3.08;;;18.30;99.90;;;;;;5162115;28;20619;-71
2023/09/14 00:07:57;;;;;;;3.30;2.50;;;18.40;99.90;;;;;;5148887;28;20044;-69
2023/09/14 00:10:29;;;;;;;2.85;2.55;;;18.40;99.90;;;;;;5145597;28;20546;-70
2023/09/14 00:13:03;;;;;;;3.35;2.95;;;18.40;99.90;;;;;;5154515;28;20034;-70
2023/09/14 00:15:34;;;;;;;3.40;3.10;;;18.40;99.90;;;;;;5140867;28;20038;-70
2023/09/14 00:18:05;;;;;;;5.55;3.55;;;18.40;99.90;;;;;;5159443;28;20030;-70
2023/09/14 00:20:39;;;;;;;3.05;2.53;;;18.30;99.90;;;;;;5142222;28;20052;-70
2023/09/14 00:23:13;;;;;;;4.28;2.67;;;18.30;99.90;;;;;;5136715;28;20253;-70
2023/09/14 00:25:47;;;;;;;3.55;3.05;;;18.40;99.90;;;;;;5121828;28;20038;-69
2023/09/14 00:28:18;;;;;;;3.97;2.97;;;18.40;99.90;;;;;;5122087;28;20034;-70
2023/09/14 00:30:54;;;;;;;3.00;2.70;;;18.40;99.90;;;;;;5125832;28;20333;-70
2023/09/14 00:33:25;;;;;;;3.42;2.58;;;18.40;99.90;;;;;;5152658;28;20254;-70
2023/09/14 00:35:56;;;;;;;3.95;2.40;;;18.50;99.90;;;;;;5142702;28;20038;-69
2023/09/14 00:38:28;;;;;;;3.00;2.70;;;18.50;99.90;;;;;;5136963;28;20045;-69
2023/09/14 00:41:02;;;;;;;3.00;2.70;;;18.50;99.90;;;;;;5148034;28;20057;-69
2023/09/14 00:43:34;;;;;;;4.95;3.03;;;18.60;99.90;;;;;;5164058;28;20038;-69
2023/09/14 00:46:07;;;;;;;2.97;2.65;;;18.60;99.90;;;;;;5158085;28;20038;-70
2023/09/14 00:48:38;;;;;;;3.13;2.45;;;18.60;99.90;;;;;;5157870;28;20242;-69
2023/09/14 00:51:09;;;;;;;3.15;2.72;;;18.60;99.90;;;;;;5149639;28;20243;-70
2023/09/14 00:53:41;;;;;;;2.75;2.47;;;18.60;99.90;;;;;;5158393;28;20524;-69
2023/09/14 00:56:12;;;;;;;3.13;2.75;;;18.50;99.90;;;;;;5147487;28;20320;-68
2023/09/14 00:58:44;;;;;;;3.15;2.85;;;18.50;99.90;;;;;;5159142;28;20036;-70
2023/09/14 01:01:21;;;;;;;2.65;2.38;;;18.50;99.90;;;;;;5152723;22;20034;-94
2023/09/14 01:03:55;;;;;;;3.05;2.65;;;18.50;99.90;;;;;;5183399;28;20329;-93
2023/09/14 01:06:27;;;;;;;2.78;2.55;;;18.60;99.90;;;;;;5183962;28;20034;-91
2023/09/14 01:09:00;;;;;;;3.33;2.78;;;18.60;99.90;;;;;;5184678;28;20036;-96
2023/09/14 01:11:31;;;;;;;4.75;2.97;;;18.50;99.90;;;;;;5183467;28;20051;-94
2023/09/14 01:14:26;;;;;;;3.13;2.33;;;18.60;99.90;;;;;;5183466;28;20036;-94
2023/09/14 01:17:20;;;;;;;3.88;2.83;;;18.60;99.90;;;;;;5183260;28;20044;-92
2023/09/14 01:20:19;;;;;;;2.70;2.47;;;18.60;99.90;;;;;;5167557;28;20219;-93
2023/09/14 01:23:00;;;;;;;3.20;2.65;;;18.60;99.90;;;;;;5183056;28;20226;-94
2023/09/14 01:25:47;;;;;;;2.40;2.20;;;18.60;99.90;;;;;;5182366;28;20040;-95
2023/09/14 01:28:19;;;;;;;4.63;2.72;;;18.60;99.90;;;;;;5166181;28;20037;-92
2023/09/14 01:30:50;;;;;;;3.08;2.45;;;18.50;99.90;;;;;;5182758;28;20033;-93
2023/09/14 01:33:24;;;;;;;3.63;2.70;;;18.50;99.90;;;;;;5183187;28;20038;-94
2023/09/14 01:39:24;;;;;;;2.80;2.58;;;18.40;99.90;;;;;;5183319;28;20025;-92
2023/09/14 01:41:57;;;;;;;3.05;2.60;;;18.40;99.90;;;;;;5182726;28;20025;-91
2023/09/14 01:44:28;;;;;;;4.38;2.78;;;18.30;99.90;;;;;;5182508;28;20331;-92
2023/09/14 01:47:03;;;;;;;3.72;3.08;;;18.30;99.90;;;;;;5166923;28;20030;-94
2023/09/14 01:49:38;;;;;;;3.45;2.55;;;18.20;99.90;;;;;;5182363;28;20041;-93
2023/09/14 01:52:31;;;;;;;5.05;2.65;;;18.10;99.90;;;;;;5183898;28;20250;-93
2023/09/14 01:55:03;;;;;;;4.35;3.55;;;18.10;99.90;;;;;;5183765;28;20026;-93
2023/09/14 01:57:40;;;;;;;4.10;3.30;;;18.00;99.90;;;;;;5183024;28;20033;-91
2023/09/14 02:00:12;;;;;;;3.28;2.97;;;18.00;99.90;;;;;;5152909;28;20034;-93
2023/09/14 02:03:04;;;;;;;2.88;2.58;;;18.00;99.90;;;;;;5174429;28;20044;-93
2023/09/14 02:05:36;;;;;;;3.33;2.88;;;18.00;99.90;;;;;;5183314;28;20030;-95
2023/09/14 02:08:12;;;;;;;4.13;3.17;;;18.00;99.90;;;;;;5184256;28;20036;-93
2023/09/14 02:10:44;;;;;;;4.07;2.78;;;18.00;99.90;;;;;;5182825;28;20315;-93
2023/09/14 02:13:15;;;;;;;2.88;2.55;;;18.00;99.90;;;;;;5183765;28;20038;-93
2023/09/14 02:15:46;;;;;;;4.75;3.20;;;18.00;99.90;;;;;;5150754;28;20168;-93
2023/09/14 02:18:17;;;;;;;3.25;2.75;;;18.00;99.90;;;;;;5183827;28;20056;-94
2023/09/14 02:20:50;;;;;;;3.80;2.60;;;18.00;99.90;;;;;;5182009;28;20044;-93
2023/09/14 02:23:21;;;;;;;2.78;2.47;;;18.00;99.90;;;;;;5182677;28;20030;-94
2023/09/14 02:25:52;;;;;;;3.95;2.97;;;18.00;99.90;;;;;;5183712;28;20036;-93
2023/09/14 02:28:26;;;;;;;2.55;2.35;;;18.00;99.90;;;;;;5182347;28;20223;-95
2023/09/14 02:30:58;;;;;;;4.68;2.50;;;18.00;99.90;;;;;;5182386;28;20048;-93
2023/09/14 02:33:30;;;;;;;4.82;2.30;;;18.00;99.90;;;;;;5183296;28;20022;-93
2023/09/14 02:36:04;;;;;;;;;;;18.00;99.90;;;;;;5167081;28;20045;-92
2023/09/14 02:38:36;;;;;;;3.38;2.55;;;18.00;99.90;;;;;;5199194;28;19902;-92
2023/09/14 02:41:07;;;;;;;2.70;2.50;;;18.00;99.90;;;;;;5166344;28;20030;-95
2023/09/14 02:43:38;;;;;;;3.00;2.53;;;17.90;99.90;;;;;;5184092;28;20034;-91
2023/09/14 02:46:09;;;;;;;2.88;2.30;;;17.90;99.90;;;;;;5188801;28;20030;-92
2023/09/14 02:48:43;;;;;;;2.67;2.40;;;17.90;99.90;;;;;;5177347;28;20034;-94
2023/09/14 02:51:15;;;;;;;3.40;3.05;;;17.90;99.90;;;;;;5193807;28;20049;-92
2023/09/14 02:53:47;;;;;;;3.08;2.45;;;17.80;99.90;;;;;;5176882;28;20044;-93
2023/09/14 02:56:18;;;;;;;3.60;2.95;;;17.80;99.90;;;;;;5194676;28;20038;-92
2023/09/14 02:58:53;;;;;;;4.00;2.47;;;17.80;99.90;;;;;;5179474;28;20049;-93
2023/09/14 03:01:25;;;;;;;2.50;2.22;;;17.80;99.90;;;;;;5195727;28;20049;-93
2023/09/14 03:03:56;;;;;;;3.50;2.50;;;17.80;99.90;;;;;;5163513;28;20029;-94
2023/09/14 03:06:29;;;;;;;2.67;2.40;;;17.80;99.90;;;;;;5195251;28;20049;-94
2023/09/14 03:09:01;;;;;;;3.90;2.88;;;17.80;99.90;;;;;;5187413;28;20026;-94
2023/09/14 03:11:37;;;;;;;3.58;2.80;;;17.80;99.90;;;;;;5211768;28;20038;-95
2023/09/14 03:14:11;;;;;;;3.58;2.90;;;17.70;99.90;;;;;;5199640;28;20029;-95
2023/09/14 03:16:51;;;;;;;3.90;3.10;;;17.70;99.90;;;;;;5211912;28;20037;-93
2023/09/14 03:19:22;;;;;;;3.08;2.78;;;17.80;99.90;;;;;;5202884;28;20047;-95
2023/09/14 03:21:54;;;;;;;5.43;3.22;;;17.70;99.90;;;;;;5203379;28;20029;-94
2023/09/14 03:24:26;;;;;;;4.22;3.00;;;17.80;99.90;;;;;;5203964;28;20036;-94
2023/09/14 03:26:57;;;;;;;3.28;2.90;;;17.70;99.90;;;;;;5202535;28;20029;-94
2023/09/14 03:29:28;;;;;;;3.58;2.78;;;17.70;99.90;;;;;;5202048;28;20037;-92
2023/09/14 03:32:00;;;;;;;3.97;2.97;;;17.70;99.90;;;;;;5218129;22;20019;-68
2023/09/14 03:34:31;;;;;;;3.50;2.85;;;17.70;99.90;;;;;;5215130;28;20048;-69
2023/09/14 03:37:03;;;;;;;3.95;2.92;;;17.70;99.90;;;;;;5245722;28;20034;-68
2023/09/14 03:39:34;;;;;;;3.45;2.88;;;17.70;99.90;;;;;;5228245;28;20047;-67
2023/09/14 03:42:10;;;;;;;3.45;3.03;;;17.70;99.90;;;;;;5240838;28;20021;-67
2023/09/14 03:44:44;;;;;;;3.75;2.80;;;17.70;99.90;;;;;;5222493;28;20034;-65
2023/09/14 03:47:15;;;;;;;4.15;3.10;;;17.70;99.90;;;;;;5223484;28;20044;-65
2023/09/14 03:49:47;;;;;;;3.03;2.65;;;17.70;99.90;;;;;;5226924;28;20459;-68
2023/09/14 03:52:18;;;;;;;3.63;3.33;;;17.70;99.90;;;;;;5206971;28;20407;-65
2023/09/14 03:54:49;;;;;;;3.92;3.20;;;17.70;99.90;;;;;;5207669;28;20028;-65
2023/09/14 03:57:21;;;;;;;3.53;2.95;;;17.70;99.90;;;;;;5224439;28;20028;-67
2023/09/14 03:59:53;;;;;;;3.33;3.00;;;17.70;99.90;;;;;;5255178;28;20468;-66
2023/09/14 04:02:24;;;;;;;4.55;3.85;;;17.70;99.90;;;;;;5204840;28;20711;-64
2023/09/14 04:05:11;;;;;;;3.30;3.00;;;17.80;99.90;;;;;;5226909;28;20042;-65
2023/09/14 04:07:46;;;;;;;3.97;3.55;;;17.70;99.90;;;;;;5206924;28;20110;-64
2023/09/14 04:10:20;;;;;;;4.82;2.97;;;17.70;99.90;;;;;;5191587;28;20062;-65
2023/09/14 04:12:59;;;;;;;4.10;3.15;;;17.70;99.90;;;;;;5220738;28;20016;-68
2023/09/14 04:15:30;;;;;;;3.38;2.95;;;17.80;99.90;;;;;;5242013;28;20216;-64
2023/09/14 04:18:04;;;;;;;5.93;3.58;;;17.70;99.90;;;;;;5237389;28;20038;-68
2023/09/14 04:20:37;;;;;;;3.72;3.30;;;17.70;99.90;;;;;;5206013;28;20039;-65
2023/09/14 04:23:11;;;;;;;4.13;3.43;;;17.70;99.90;;;;;;5190917;28;20035;-66
2023/09/14 04:25:46;;;;;;;3.95;3.35;;;17.70;99.90;;;;;;5198288;28;20028;-66
2023/09/14 04:28:23;;;;;;;6.13;3.67;;;17.70;99.90;;;;;;5218121;28;20032;-65
2023/09/14 04:30:58;;;;;;;5.20;2.90;;;17.70;99.90;;;;;;5201528;28;20044;-66
2023/09/14 04:33:32;;;;;;;5.18;4.30;;;17.70;99.90;;;;;;5245980;28;20043;-65
2023/09/14 04:36:05;;;;;;;;;;;17.70;99.90;;;;;;5204464;28;20024;-65
2023/09/14 04:38:36;;;;;;;7.75;4.18;;;17.70;99.90;;;;;;5233436;28;19908;-66
2023/09/14 04:41:07;;;;;;;5.60;3.75;;;17.70;99.90;;;;;;5245447;28;20032;-68
2023/09/14 04:43:38;;;;;;;6.03;3.90;;;17.70;99.90;;;;;;5245401;28;20020;-65
2023/09/14 04:46:12;;;;;;;5.72;4.47;;;17.70;99.90;;;;;;5243377;28;20035;-66
2023/09/14 04:48:43;;;;;;;5.22;4.25;;;17.60;99.90;;;;;;5209241;28;20036;-66
2023/09/14 04:51:17;;;;;;;7.20;4.93;;;17.60;99.90;;;;;;5228050;28;20038;-64
2023/09/14 04:53:51;;;;;;;5.57;4.20;;;17.70;99.90;;;;;;5226649;28;20047;-64
2023/09/14 04:56:22;;;;;;;6.43;4.93;;;17.70;99.90;;;;;;5209427;28;20032;-65
2023/09/14 04:58:54;;;;;;;6.63;4.70;;;17.70;99.90;;;;;;5233276;28;20021;-65
2023/09/14 05:01:25;;;;;;;4.25;3.85;;;17.70;99.90;;;;;;5231433;28;20033;-66
2023/09/14 05:03:56;;;;;;;6.15;4.05;;;17.70;99.90;;;;;;5217862;28;20032;-64
2023/09/14 05:06:27;;;;;;;6.40;4.80;;;17.70;99.90;;;;;;5214366;28;20264;-65
2023/09/14 05:09:01;;;;;;;5.88;4.28;;;17.70;99.90;;;;;;5221117;28;20063;-66
2023/09/14 05:11:33;;;;;;;4.30;3.88;;;17.70;99.90;;;;;;5219920;28;20044;-67
2023/09/14 05:14:04;;;;;;;5.22;4.40;;;17.70;99.90;;;;;;5244430;28;20191;-66
2023/09/14 05:16:35;;;;;;;5.22;4.20;;;17.70;99.90;;;;;;5202247;28;20028;-65
2023/09/14 05:19:06;;;;;;;6.97;4.57;;;17.80;99.90;;;;;;5228918;28;20028;-64
2023/09/14 05:21:42;;;;;;;5.63;4.43;;;17.70;99.90;;;;;;5236939;28;20035;-65
2023/09/14 05:24:13;;;;;;;6.00;4.78;;;17.80;99.90;;;;;;5224813;28;20024;-65
2023/09/14 05:26:44;;;;;;;7.85;4.10;;;17.80;99.90;;;;;;5226394;28;20036;-65
2023/09/14 05:29:18;;;;;;;7.63;4.55;;;17.90;99.90;;;;;;5227155;28;20051;-64
2023/09/14 05:31:49;;;;;;;5.10;4.03;;;17.90;99.90;;;;;;5226024;28;20028;-65
2023/09/14 05:34:23;;;;;;;6.60;4.57;;;17.90;99.90;;;;;;5212963;28;20039;-65
2023/09/14 05:36:56;;;;;;;6.45;4.57;;;17.90;99.90;;;;;;5205879;28;20043;-66
2023/09/14 05:39:27;;;;;;;5.75;4.25;;;18.00;99.90;;;;;;5189111;28;20033;-64
2023/09/14 05:42:01;;;;;;;5.25;4.20;;;18.00;99.90;;;;;;5206018;28;20059;-65
2023/09/14 05:44:32;;;;;;;5.65;4.55;;;18.10;99.90;;;;;;5198360;28;20039;-65
2023/09/14 05:47:03;;;;;;;5.55;4.10;;;18.10;99.90;;;;;;5217701;28;20036;-64
2023/09/14 05:49:35;;;;;;;5.25;4.28;;;18.20;99.90;;;;;;5185877;28;20154;-65
2023/09/14 05:52:06;;;;;;;6.35;4.80;;;18.20;99.90;;;;;;5196330;28;20037;-65
2023/09/14 05:54:37;;;;;;;7.07;4.32;;;18.30;99.90;;;;;;5195039;28;20056;-65
2023/09/14 05:57:09;;;;;;;6.20;4.53;;;18.30;99.90;;;;;;5186445;28;20035;-64
2023/09/14 05:59:46;;;;;;;9.45;5.45;;;18.30;99.90;;;;;;5179672;28;20047;-65
2023/09/14 06:02:18;;;;;;;5.53;4.18;;;18.30;99.90;;;;;;5199298;28;20072;-66
2023/09/14 06:04:51;;;;;;;5.82;4.80;;;18.30;99.90;;;;;;5209761;28;20045;-65
2023/09/14 06:07:26;;;;;;;6.38;4.93;;;18.40;99.90;;;;;;5204790;28;20029;-65
2023/09/14 06:09:57;;;;;;;4.80;3.95;;;18.50;99.90;;;;;;5198428;28;20040;-66
2023/09/14 06:12:29;;;;;;;6.50;4.40;;;18.60;99.90;;;;;;5201523;28;20017;-65
2023/09/14 06:15:02;;;;;;;6.07;4.40;;;18.70;99.90;;;;;;5195369;28;20369;-66
2023/09/14 06:17:43;;;;;;;5.50;4.60;;;18.80;99.90;;;;;;5181944;28;20021;-66
2023/09/14 06:20:14;;;;;;;5.40;3.72;;;18.80;99.90;;;;;;5176666;28;20397;-67
2023/09/14 06:22:46;;;;;;;4.78;4.07;;;18.90;99.90;;;;;;5200492;28;20040;-64
2023/09/14 06:25:20;;;;;;;5.35;4.18;;;19.00;99.90;;;;;;5240960;28;20036;-69
2023/09/14 06:27:51;;;;;;;4.63;4.15;;;19.10;99.90;;;;;;5240452;28;20048;-67
2023/09/14 06:30:22;;;;;;;4.20;3.80;;;19.10;99.90;;;;;;5222006;28;20036;-67
2023/09/14 06:32:54;;;;;;;4.80;4.13;;;19.10;99.90;;;;;;5224870;28;20346;-64
2023/09/14 06:35:25;;;;;;;5.75;4.20;;;19.10;99.90;;;;;;5203939;28;20036;-62
2023/09/14 06:37:57;;;;;;;4.78;4.05;;;19.30;99.90;;;;;;5241807;28;20035;-67
2023/09/14 06:40:30;;;;;;;4.50;4.00;;;19.40;99.90;;;;;;5220331;28;20045;-63
2023/09/14 06:43:02;;;;;;;6.23;4.40;;;19.60;99.90;;;;;;5188463;28;20040;-66
2023/09/14 06:45:33;;;;;;;6.72;4.32;;;19.70;99.90;;;;;;5217963;28;20043;-65
2023/09/14 06:48:05;;;;;;;7.63;4.38;;;19.60;99.90;;;;;;5193414;28;20397;-65
2023/09/14 06:50:36;;;;;;;5.00;4.50;;;19.70;99.90;;;;;;5236203;28;20348;-65
2023/09/14 06:53:09;;;;;;;4.78;4.18;;;19.60;99.90;;;;;;5230244;28;20043;-64
2023/09/14 06:55:40;;;;;;;4.38;3.90;;;19.70;99.90;;;;;;5242196;28;20021;-65
2023/09/14 06:58:11;;;;;;;5.00;4.07;;;19.70;99.90;;;;;;5242375;28;20224;-63
2023/09/14 07:00:42;;;;;;;7.60;4.32;;;19.70;99.90;;;;;;5171434;28;20244;-62
2023/09/14 07:03:14;;;;;;;5.07;4.07;;;19.60;99.90;;;;;;5218662;28;20028;-62
2023/09/14 07:05:45;;;;;;;5.25;4.10;;;19.60;99.90;;;;;;5216305;28;20044;-65
2023/09/14 07:08:16;;;;;;;4.40;3.97;;;19.50;99.90;;;;;;5244883;28;20046;-65
2023/09/14 07:10:47;;;;;;;5.47;3.97;;;19.60;99.90;;;;;;5220148;28;20055;-64
2023/09/14 07:13:18;;;;;;;6.35;4.40;;;19.70;99.90;;;;;;5218879;28;20039;-62
2023/09/14 07:15:49;;;;;;;6.47;4.70;;;19.70;99.90;;;;;;5226572;28;20092;-62
2023/09/14 07:18:29;;;;;;;4.25;3.80;;;19.80;99.90;;;;;;5229724;28;20137;-62
2023/09/14 07:21:04;;;;;;;4.93;4.43;;;20.00;99.90;;;;;;5216212;28;20056;-61
2023/09/14 07:23:38;;;;;;;4.68;3.90;;;20.20;23.10;;;;;;5241888;28;20063;-63
2023/09/14 07:26:12;;;;;;;4.60;4.13;;;20.30;99.90;;;;;;5211883;28;20095;-63
2023/09/14 07:28:43;;;;;;;5.15;3.95;;;20.50;1.00;;;;;;5206317;28;20061;-62
2023/09/14 07:31:17;;;;;;;5.20;4.03;;;20.50;1.00;;;;;;5190362;28;20143;-65
2023/09/14 07:33:48;;;;;;;5.45;3.63;;;20.40;1.00;;;;;;5200619;28;20039;-61
2023/09/14 07:36:19;;;;;;;4.95;3.92;;;20.30;1.00;;;;;;5220134;28;20079;-61
2023/09/14 07:38:51;;;;;;;5.95;4.55;;;20.30;27.60;;;;;;5213370;28;20040;-61
2023/09/14 07:41:22;;;;;;;5.63;4.68;;;20.40;1.00;;;;;;5241832;28;20245;-62
2023/09/14 07:43:54;;;;;;;6.10;4.13;;;20.50;1.00;;;;;;5227555;28;20040;-64
2023/09/14 07:46:25;;;;;;;4.57;4.05;;;20.70;1.00;;;;;;5195027;28;20353;-63
2023/09/14 07:48:56;;;;;;;5.50;4.45;;;20.70;1.00;;;;;;5248127;28;20028;-62
2023/09/14 07:51:28;;;;;;;4.55;4.10;;;21.00;1.00;;;;;;5237748;28;20086;-63
2023/09/14 07:54:02;;;;;;;4.93;4.43;;;21.10;1.00;;;;;;5214431;28;20039;-62
2023/09/14 07:56:33;;;;;;;4.13;3.65;;;21.00;1.00;;;;;;5201311;28;20055;-63
2023/09/14 07:59:04;;;;;;;7.13;5.25;;;20.80;1.00;;;;;;5248768;28;20044;-62
2023/09/14 08:01:38;;;;;;;5.28;4.60;;;20.60;1.00;;;;;;5232189;28;20373;-62
2023/09/14 08:04:11;;;;;;;5.53;4.75;;;20.40;1.00;;;;;;5226817;28;20418;-63
2023/09/14 08:06:45;;;;;;;5.20;4.13;;;20.40;1.00;;;;;;5182817;28;20048;-62
2023/09/14 08:09:16;;;;;;;4.68;4.18;;;20.50;1.00;;;;;;5196604;28;20253;-63
2023/09/14 08:11:47;;;;;;;6.47;4.50;;;20.70;1.00;;;;;;5219630;28;20266;-62
2023/09/14 08:14:18;;;;;;;6.20;4.88;;;20.70;1.00;;;;;;5233954;28;20038;-62
2023/09/14 08:16:49;;;;;;;4.82;4.05;;;20.90;1.00;;;;;;5194961;28;20037;-62
2023/09/14 08:19:21;;;;;;;4.95;4.07;;;20.70;1.00;;;;;;5208710;28;20260;-63
2023/09/14 08:21:54;;;;;;;5.03;4.25;;;20.90;1.00;;;;;;5181926;28;20087;-63
2023/09/14 08:24:28;;;;;;;4.28;3.88;;;20.70;1.00;;;;;;5228691;28;20033;-63
2023/09/14 08:26:59;;;;;;;4.43;4.00;;;20.60;1.00;;;;;;5203143;28;20041;-62
2023/09/14 08:29:31;;;;;;;5.07;3.97;;;20.90;1.00;;;;;;5236705;28;20040;-62
2023/09/14 08:32:02;;;;;;;4.65;4.03;;;20.90;1.00;;;;;;5220856;28;20059;-64
2023/09/14 08:34:33;;;;;;;6.05;3.78;;;21.00;1.00;;;;;;5268368;28;20020;-63
2023/09/14 08:37:10;;;;;;;4.43;3.75;;;21.00;1.00;;;;;;5206151;28;20431;-63
2023/09/14 08:39:42;;;;;;;6.00;4.03;;;21.20;1.00;;;;;;5193416;28;20366;-62
2023/09/14 08:42:13;;;;;;;5.50;4.20;;;21.40;1.00;;;;;;5210294;28;20051;-64
2023/09/14 08:44:48;;;;;;;6.80;4.40;;;21.40;99.90;;;;;;5211959;28;20116;-61
2023/09/14 08:47:26;;;;;;;4.68;4.15;;;21.50;1.00;;;;;;5216095;28;20052;-62
2023/09/14 08:50:00;;;;;;;4.35;3.95;;;21.60;99.90;;;;;;5211538;28;20031;-64
2023/09/14 08:52:34;;;;;;;4.43;4.03;;;21.80;99.90;;;;;;5191484;28;20044;-63
2023/09/14 08:55:10;;;;;;;4.55;3.80;;;21.70;99.90;;;;;;5236223;28;20052;-64
2023/09/14 08:57:44;;;;;;;4.57;4.13;;;21.60;99.90;;;;;;5217238;28;20071;-63
2023/09/14 09:00:17;;;;;;;4.35;3.88;;;21.60;99.90;;;;;;5233957;28;20024;-63
2023/09/14 09:02:51;;;;;;;3.90;3.42;;;21.50;99.90;;;;;;5200651;28;20053;-63
2023/09/14 09:05:27;;;;;;;5.43;4.25;;;21.70;99.90;;;;;;5219163;28;20040;-62
2023/09/14 09:07:59;;;;;;;5.75;3.78;;;21.80;99.90;;;;;;5232828;28;20240;-62
2023/09/14 09:10:31;;;;;;;4.25;3.85;;;21.80;99.90;;;;;;5215317;28;20039;-62
2023/09/14 09:13:04;;;;;;;4.70;3.97;;;21.90;99.90;;;;;;5193132;28;20501;-63
2023/09/14 09:15:38;;;;;;;4.03;3.58;;;21.80;41.60;;;;;;5207860;28;20036;-64
2023/09/14 09:18:11;;;;;;;4.60;3.83;;;21.50;99.90;;;;;;5212420;28;20036;-63
2023/09/14 09:20:45;;;;;;;5.05;3.33;;;21.80;40.40;;;;;;5193183;28;20052;-63
2023/09/14 09:23:20;;;;;;;4.22;3.80;;;21.90;99.90;;;;;;5194775;28;20051;-62
2023/09/14 09:25:57;;;;;;;;;;;21.90;85.70;;;;;;5218552;28;20024;-63
2023/09/14 09:28:30;;;;;;;4.88;3.47;;;21.90;99.90;;;;;;5213356;28;19909;-63
2023/09/14 09:31:04;;;;;;;3.90;3.53;;;22.20;1.00;;;;;;5220822;28;20043;-64
2023/09/14 09:33:36;;;;;;;4.90;4.00;;;22.10;1.00;;;;;;5179742;28;20053;-64
2023/09/14 09:36:18;;;;;;;4.50;4.00;;;22.00;1.00;;;;;;5208581;28;20040;-65
2023/09/14 09:38:53;;;;;;;4.50;4.10;;;21.80;1.00;;;;;;5216185;28;20682;-64
2023/09/14 09:41:24;;;;;;;5.75;3.88;;;21.90;1.00;;;;;;5209177;28;20036;-63
2023/09/14 09:44:00;;;;;;;4.03;3.53;;;22.10;1.00;;;;;;5200158;28;20036;-63
2023/09/14 09:46:38;;;;;;;3.97;3.58;;;22.10;1.00;;;;;;5242521;28;20221;-62
2023/09/14 09:49:22;;;;;;;5.13;4.25;;;22.10;1.00;;;;;;5239625;28;20042;-64
2023/09/14 09:51:53;;;;;;;4.73;3.80;;;21.80;1.00;;;;;;5233250;28;20025;-63
2023/09/14 09:54:26;;;;;;;4.70;4.30;;;22.00;1.00;;;;;;5230813;28;20123;-64
2023/09/14 09:57:03;;;;;;;4.32;3.92;;;21.90;1.00;;;;;;5206074;28;20252;-65
2023/09/14 09:59:35;;;;;;;5.57;4.40;;;21.80;1.00;;;;;;5218028;28;20056;-65
2023/09/14 10:02:07;;;;;;;5.75;4.63;;;21.90;1.00;;;;;;5234754;28;20538;-63
2023/09/14 10:04:53;;;;;;;7.38;4.65;;;22.20;1.00;;;;;;5231915;28;20062;-64
2023/09/14 10:07:28;;;;;;;4.32;3.67;;;22.10;1.00;;;;;;5209173;28;20620;-63
2023/09/14 10:09:59;;;;;;;4.90;4.28;;;21.90;1.00;;;;;;5231894;28;20066;-64
2023/09/14 10:12:32;;;;;;;6.05;4.18;;;21.90;1.00;;;;;;5240680;28;20031;-63
2023/09/14 10:15:04;;;;;;;4.25;3.85;;;21.80;1.00;;;;;;5187722;28;20059;-65
2023/09/14 10:17:36;;;;;;;5.30;4.30;;;22.10;1.00;;;;;;5213128;28;20039;-64
2023/09/14 10:20:09;;;;;;;5.72;4.13;;;22.20;1.00;;;;;;5188605;28;20045;-64
2023/09/14 10:22:41;;;;;;;4.65;3.85;;;22.00;1.00;;;;;;5203238;28;20036;-62
2023/09/14 10:25:12;;;;;;;5.88;3.65;;;21.80;1.00;;;;;;5204985;28;20036;-64
2023/09/14 10:27:44;;;;;;;7.72;4.53;;;21.80;1.00;;;;;;5216950;28;20025;-64
2023/09/14 10:30:23;;;;;;;4.20;3.78;;;21.90;1.00;;;;;;5193548;28;20112;-62
2023/09/14 10:32:59;;;;;;;4.68;4.18;;;21.90;1.00;;;;;;5223897;28;20046;-65
2023/09/14 10:35:32;;;;;;;4.25;3.83;;;21.90;1.00;;;;;;5232254;28;20059;-65
2023/09/14 10:38:06;;;;;;;4.70;3.67;;;22.00;1.00;;;;;;5206991;28;20192;-64
2023/09/14 10:40:37;;;;;;;3.65;3.30;;;22.20;1.00;;;;;;5183811;28;20346;-64
2023/09/14 10:43:10;;;;;;;3.05;2.72;;;22.00;99.90;;;;;;5188306;28;20040;-63
2023/09/14 10:45:44;;;;;;;3.83;3.00;;;21.90;99.90;;;;;;5194824;28;20036;-64
2023/09/14 10:48:19;;;;;;;3.58;3.15;;;22.00;99.90;;;;;;5243067;28;20032;-61
2023/09/14 10:50:51;;;;;;;3.58;3.25;;;22.10;99.90;;;;;;5231650;28;20048;-64
2023/09/14 10:53:26;;;;;;;4.13;3.45;;;22.30;99.90;;;;;;5210549;28;20036;-62
2023/09/14 10:55:58;;;;;;;4.00;3.28;;;22.30;98.80;;;;;;5214303;28;21240;-62
2023/09/14 10:58:42;;;;;;;4.70;3.20;;;22.60;1.00;;;;;;5204152;28;20028;-64
2023/09/14 11:01:13;;;;;;;3.13;2.80;;;22.90;1.00;;;;;;5206325;28;21096;-63
2023/09/14 11:04:13;;;;;;;3.40;3.10;;;23.30;1.00;;;;;;5238300;28;20493;-64
2023/09/14 11:06:45;;;;;;;3.38;2.83;;;23.60;99.90;;;;;;5211194;28;20036;-62
2023/09/14 11:09:18;;;;;;;2.58;2.38;;;24.40;99.90;;;;;;5199358;28;20032;-63
2023/09/14 11:11:53;;;;;;;3.10;2.63;;;25.30;99.90;;;;;;5200933;28;20041;-63
2023/09/14 11:14:25;;;;;;;3.05;2.72;;;25.50;99.90;;;;;;5241468;28;20462;-65
2023/09/14 11:17:00;;;;;;;2.55;2.33;;;25.20;1.00;;;;;;5226094;28;20040;-64
2023/09/14 11:19:37;;;;;;;4.38;2.58;;;25.90;1.00;;;;;;5210826;28;20217;-62
2023/09/14 11:22:15;;;;;;;2.70;2.50;;;25.80;1.00;;;;;;5230081;28;20044;-61
2023/09/14 11:24:48;;;;;;;3.83;2.33;;;26.30;99.90;;;;;;5207104;28;20040;-63
2023/09/14 11:27:19;;;;;;;3.17;2.22;;;27.40;1.00;;;;;;5216576;28;20063;-64
2023/09/14 11:29:52;;;;;;;2.88;2.30;;;28.30;99.90;;;;;;5223850;28;20272;-62
2023/09/14 11:32:29;;;;;;;2.97;2.53;;;28.30;1.00;;;;;;5189538;28;20486;-61
2023/09/14 11:35:02;;;;;;;2.72;2.50;;;28.00;1.00;;;;;;5223579;28;20040;-65
2023/09/14 11:37:33;;;;;;;2.70;2.45;;;28.70;1.00;;;;;;5200800;28;20079;-63
2023/09/14 11:40:06;;;;;;;2.90;2.50;;;29.00;1.00;;;;;;5232595;28;20036;-63
2023/09/14 11:43:06;;;;;;;2.53;2.30;;;29.00;1.00;;;;;;5233474;28;20051;-65
2023/09/14 11:45:41;;;;;;;2.33;2.13;;;30.10;1.00;;;;;;5226228;28;20030;-63
2023/09/14 11:48:16;;;;;;;3.22;2.10;;;29.50;1.00;;;;;;5228722;28;20333;-63
2023/09/14 11:50:48;;;;;;;2.90;2.20;;;28.40;1.00;;;;;;5218760;28;20051;-62
2023/09/14 11:53:22;;;;;;;2.78;2.38;;;27.60;1.00;;;;;;5221040;28;20513;-65
2023/09/14 11:55:53;;;;;;;2.83;2.63;;;27.30;99.90;;;;;;5218473;28;20029;-64
2023/09/14 11:58:25;;;;;;;2.42;2.22;;;28.30;99.90;;;;;;5230345;28;20013;-61
2023/09/14 12:00:57;;;;;;;2.20;2.00;;;29.60;99.90;;;;;;5184927;28;20138;-64
2023/09/14 12:03:28;;;;;;;2.85;1.92;;;31.20;99.90;;;;;;5203891;28;20067;-61
2023/09/14 12:06:00;;;;;;;2.65;2.45;;;29.40;99.90;;;;;;5231526;28;20024;-62
2023/09/14 12:08:31;;;;;;;2.40;2.20;;;27.80;82.20;;;;;;5224019;28;20032;-63
2023/09/14 12:11:03;;;;;;;2.72;2.53;;;26.80;1.00;;;;;;5197692;28;20028;-64
2023/09/14 12:13:34;;;;;;;2.22;2.00;;;25.30;1.00;;;;;;5223875;28;20024;-64
2023/09/14 12:16:05;;;;;;;2.85;2.35;;;24.70;1.00;;;;;;5231351;28;20322;-64
2023/09/14 12:18:41;;;;;;;3.22;2.13;;;24.60;1.00;;;;;;5197311;28;20058;-63
2023/09/14 12:21:13;;;;;;;2.60;2.30;;;24.30;1.00;;;;;;5202277;28;20048;-66
2023/09/14 12:23:48;;;;;;;3.35;2.25;;;24.00;1.00;;;;;;5197314;28;20379;-65
2023/09/14 12:26:21;;;;;;;5.05;2.30;;;23.90;1.00;;;;;;5244768;28;20035;-64
2023/09/14 12:28:58;;;;;;;2.78;2.40;;;24.40;18.90;;;;;;5216268;28;20142;-66
2023/09/14 12:31:37;;;;;;;1.90;1.70;;;26.90;1.00;;;;;;5238400;28;20662;-66
2023/09/14 12:34:08;;;;;;;1.95;1.65;;;28.00;1.00;;;;;;5218752;28;20149;-63
2023/09/14 12:36:42;;;;;;;1.98;1.77;;;28.00;99.90;;;;;;5219597;28;20036;-61
2023/09/14 12:39:16;;;;;;;;;;;28.60;99.90;;;;;;5233811;28;20439;-64
2023/09/14 12:41:52;;;;;;;1.80;1.65;;;28.40;1.00;;;;;;5227357;28;19916;-66
2023/09/14 12:44:24;;;;;;;2.33;2.08;;;28.00;1.00;;;;;;5216416;28;20047;-64
2023/09/14 12:46:55;;;;;;;1.90;1.80;;;27.50;1.00;;;;;;5214454;28;20024;-65
2023/09/14 12:49:26;;;;;;;2.65;2.00;;;26.70;1.00;;;;;;5196282;28;20032;-67
2023/09/14 12:51:58;;;;;;;3.15;1.88;;;27.00;1.00;;;;;;5189729;28;20248;-65
2023/09/14 12:54:32;;;;;;;1.92;1.67;;;27.10;1.00;;;;;;5228370;28;20035;-65
2023/09/14 12:57:15;;;;;;;2.10;1.75;;;27.40;1.00;;;;;;5201482;28;20033;-64
2023/09/14 13:00:11;;;;;;;2.40;2.20;;;27.60;1.00;;;;;;5183138;28;20540;-64
2023/09/14 13:02:49;;;;;;;3.05;2.08;;;26.40;1.00;;;;;;5217195;28;20506;-63
2023/09/14 13:05:25;;;;;;;2.00;1.83;;;26.20;1.00;;;;;;5223288;28;20028;-64
2023/09/14 13:08:00;;;;;;;3.90;2.33;;;25.80;1.00;;;;;;5214499;28;20199;-65
2023/09/14 13:10:35;;;;;;;2.85;1.80;;;26.10;1.00;;;;;;5208118;28;20036;-66
2023/09/14 13:13:10;;;;;;;2.15;1.95;;;26.00;1.00;;;;;;5231979;28;20049;-65
2023/09/14 13:15:43;;;;;;;2.78;1.98;;;25.60;1.00;;;;;;5203576;28;20032;-67
2023/09/14 13:18:18;;;;;;;3.03;2.20;;;25.40;1.00;;;;;;5206750;28;20580;-66
2023/09/14 13:20:52;;;;;;;4.43;2.25;;;24.80;1.00;;;;;;5222824;28;20033;-64
2023/09/14 13:23:27;;;;;;;2.20;2.00;;;24.30;1.00;;;;;;5179348;28;20049;-65
2023/09/14 13:25:58;;;;;;;3.15;2.17;;;24.20;1.00;;;;;;5237188;28;20047;-64